sensor_id;sensor_type;location;lat;lon;timestamp;pressure;altitude;pressure_sealevel;temperature;humidity
10135;BME280;5107;48.850;8.924;2023-02-21T00:02:23;97265.63;;;7.92;65.27
10135;BME280;5107;48.850;8.924;2023-02-21T00:05:09;97259.00;;;7.88;65.22
10135;BME280;5107;48.850;8.924;2023-02-21T00:07:54;97260.97;;;7.86;65.02
10135;BME280;5107;48.850;8.924;2023-02-21T00:10:38;97261.34;;;7.72;65.63
10135;BME280;5107;48.850;8.924;2023-02-21T00:13:23;97255.03;;;7.65;65.43
10135;BME280;5107;48.850;8.924;2023-02-21T00:16:07;97251.69;;;7.63;65.61
10135;BME280;5107;48.850;8.924;2023-02-21T00:18:52;97254.75;;;7.49;65.65
10135;BME280;5107;48.850;8.924;2023-02-21T00:21:38;97256.66;;;7.37;66.10
10135;BME280;5107;48.850;8.924;2023-02-21T00:24:23;97251.25;;;7.29;66.81
10135;BME280;5107;48.850;8.924;2023-02-21T00:27:07;97252.25;;;7.18;67.09
10135;BME280;5107;48.850;8.924;2023-02-21T00:29:52;97250.69;;;7.06;67.19
10135;BME280;5107;48.850;8.924;2023-02-21T00:32:36;97245.56;;;6.95;67.30
10135;BME280;5107;48.850;8.924;2023-02-21T00:35:21;97242.09;;;6.95;67.98
10135;BME280;5107;48.850;8.924;2023-02-21T00:38:07;97251.16;;;6.81;68.13
10135;BME280;5107;48.850;8.924;2023-02-21T00:40:51;97243.84;;;6.75;68.57
10135;BME280;5107;48.850;8.924;2023-02-21T00:43:36;97245.56;;;6.55;69.12
10135;BME280;5107;48.850;8.924;2023-02-21T00:46:21;97245.28;;;6.48;69.13
10135;BME280;5107;48.850;8.924;2023-02-21T00:49:06;97241.91;;;6.37;69.21
10135;BME280;5107;48.850;8.924;2023-02-21T00:51:51;97238.56;;;6.25;69.69
10135;BME280;5107;48.850;8.924;2023-02-21T00:54:37;97240.59;;;6.22;70.33
10135;BME280;5107;48.850;8.924;2023-02-21T00:57:22;97239.22;;;6.18;70.93
10135;BME280;5107;48.850;8.924;2023-02-21T01:00:14;97236.00;;;6.14;70.46
10135;BME280;5107;48.850;8.924;2023-02-21T01:03:00;97229.13;;;6.13;70.36
10135;BME280;5107;48.850;8.924;2023-02-21T01:05:45;97236.66;;;6.06;70.80
10135;BME280;5107;48.850;8.924;2023-02-21T01:08:30;97227.28;;;6.04;70.79
10135;BME280;5107;48.850;8.924;2023-02-21T01:11:20;97237.38;;;6.08;71.12
10135;BME280;5107;48.850;8.924;2023-02-21T01:14:06;97229.00;;;6.15;71.02
10135;BME280;5107;48.850;8.924;2023-02-21T01:16:51;97227.84;;;6.28;70.52
10135;BME280;5107;48.850;8.924;2023-02-21T01:19:36;97228.06;;;6.16;70.14
10135;BME280;5107;48.850;8.924;2023-02-21T01:22:20;97228.88;;;6.16;70.86
10135;BME280;5107;48.850;8.924;2023-02-21T01:25:06;97226.03;;;6.19;70.78
10135;BME280;5107;48.850;8.924;2023-02-21T01:27:53;97226.69;;;6.21;71.11
10135;BME280;5107;48.850;8.924;2023-02-21T01:30:38;97219.34;;;6.05;71.90
10135;BME280;5107;48.850;8.924;2023-02-21T01:33:22;97225.19;;;5.98;73.27
10135;BME280;5107;48.850;8.924;2023-02-21T01:36:09;97217.50;;;5.96;72.51
10135;BME280;5107;48.850;8.924;2023-02-21T01:38:54;97219.72;;;6.01;71.17
10135;BME280;5107;48.850;8.924;2023-02-21T01:41:39;97220.22;;;5.95;71.20
10135;BME280;5107;48.850;8.924;2023-02-21T01:44:34;97217.41;;;5.87;71.42
10135;BME280;5107;48.850;8.924;2023-02-21T01:47:19;97214.16;;;5.73;72.02
10135;BME280;5107;48.850;8.924;2023-02-21T01:50:12;97208.03;;;5.63;71.82
10135;BME280;5107;48.850;8.924;2023-02-21T01:52:59;97202.63;;;5.55;71.97
10135;BME280;5107;48.850;8.924;2023-02-21T01:55:45;97202.09;;;5.41;72.76
10135;BME280;5107;48.850;8.924;2023-02-21T01:58:31;97196.81;;;5.31;73.24
10135;BME280;5107;48.850;8.924;2023-02-21T02:01:32;97198.59;;;5.30;73.12
10135;BME280;5107;48.850;8.924;2023-02-21T02:04:18;97198.91;;;5.37;72.77
10135;BME280;5107;48.850;8.924;2023-02-21T02:07:03;97196.44;;;5.36;72.81
10135;BME280;5107;48.850;8.924;2023-02-21T02:09:48;97184.28;;;5.25;72.45
10135;BME280;5107;48.850;8.924;2023-02-21T02:15:48;97184.50;;;5.22;72.63
10135;BME280;5107;48.850;8.924;2023-02-21T02:25:07;97184.94;;;5.06;71.50
10135;BME280;5107;48.850;8.924;2023-02-21T02:27:53;97183.19;;;4.95;71.97
10135;BME280;5107;48.850;8.924;2023-02-21T02:31:11;97179.06;;;4.93;72.55
10135;BME280;5107;48.850;8.924;2023-02-21T02:34:24;97180.00;;;4.92;72.96
10135;BME280;5107;48.850;8.924;2023-02-21T02:36:57;97181.06;;;4.89;73.33
10135;BME280;5107;48.850;8.924;2023-02-21T02:39:34;97176.47;;;4.93;73.26
10135;BME280;5107;48.850;8.924;2023-02-21T02:42:13;97177.97;;;4.95;73.01
10135;BME280;5107;48.850;8.924;2023-02-21T02:44:47;97184.50;;;4.90;72.31
10135;BME280;5107;48.850;8.924;2023-02-21T02:47:21;97183.03;;;4.76;73.13
10135;BME280;5107;48.850;8.924;2023-02-21T02:49:51;97185.63;;;4.65;73.55
10135;BME280;5107;48.850;8.924;2023-02-21T02:52:20;97180.44;;;4.65;74.59
10135;BME280;5107;48.850;8.924;2023-02-21T02:54:58;97179.81;;;4.62;74.76
10135;BME280;5107;48.850;8.924;2023-02-21T02:57:26;97174.16;;;4.56;74.85
10135;BME280;5107;48.850;8.924;2023-02-21T02:59:54;97172.06;;;4.50;74.56
10135;BME280;5107;48.850;8.924;2023-02-21T03:02:45;97176.31;;;4.51;74.76
10135;BME280;5107;48.850;8.924;2023-02-21T03:05:30;97184.69;;;4.55;74.70
10135;BME280;5107;48.850;8.924;2023-02-21T03:08:07;97186.34;;;4.56;75.00
10135;BME280;5107;48.850;8.924;2023-02-21T03:10:44;97184.47;;;4.58;74.27
10135;BME280;5107;48.850;8.924;2023-02-21T03:13:20;97180.66;;;4.62;73.33
10135;BME280;5107;48.850;8.924;2023-02-21T03:15:54;97181.16;;;4.56;73.15
10135;BME280;5107;48.850;8.924;2023-02-21T03:18:27;97178.66;;;4.54;73.86
10135;BME280;5107;48.850;8.924;2023-02-21T03:21:03;97180.81;;;4.49;73.55
10135;BME280;5107;48.850;8.924;2023-02-21T03:23:33;97184.25;;;4.50;73.58
10135;BME280;5107;48.850;8.924;2023-02-21T03:26:06;97183.97;;;4.53;73.67
10135;BME280;5107;48.850;8.924;2023-02-21T03:28:36;97185.53;;;4.55;73.08
10135;BME280;5107;48.850;8.924;2023-02-21T03:31:06;97190.28;;;4.50;73.74
10135;BME280;5107;48.850;8.924;2023-02-21T03:33:35;97187.91;;;4.47;73.76
10135;BME280;5107;48.850;8.924;2023-02-21T03:36:08;97184.69;;;4.44;74.20
10135;BME280;5107;48.850;8.924;2023-02-21T03:38:36;97186.63;;;4.42;74.75
10135;BME280;5107;48.850;8.924;2023-02-21T03:41:03;97179.63;;;4.42;74.44
10135;BME280;5107;48.850;8.924;2023-02-21T03:43:32;97185.19;;;4.38;74.66
10135;BME280;5107;48.850;8.924;2023-02-21T03:46:02;97184.34;;;4.37;75.24
10135;BME280;5107;48.850;8.924;2023-02-21T03:48:30;97182.13;;;4.33;75.20
10135;BME280;5107;48.850;8.924;2023-02-21T03:51:00;97183.91;;;4.32;75.75
10135;BME280;5107;48.850;8.924;2023-02-21T03:53:34;97180.81;;;4.27;76.07
10135;BME280;5107;48.850;8.924;2023-02-21T03:56:03;97186.84;;;4.28;76.69
10135;BME280;5107;48.850;8.924;2023-02-21T03:58:46;97184.97;;;4.30;76.71
10135;BME280;5107;48.850;8.924;2023-02-21T04:01:14;97186.63;;;4.31;76.89
10135;BME280;5107;48.850;8.924;2023-02-21T04:03:41;97179.97;;;4.38;75.49
10135;BME280;5107;48.850;8.924;2023-02-21T04:06:08;97175.59;;;4.49;75.68
10135;BME280;5107;48.850;8.924;2023-02-21T04:08:37;97174.50;;;4.63;74.24
10135;BME280;5107;48.850;8.924;2023-02-21T04:11:04;97176.03;;;4.77;73.42
10135;BME280;5107;48.850;8.924;2023-02-21T04:13:33;97172.09;;;4.82;73.50
10135;BME280;5107;48.850;8.924;2023-02-21T04:16:02;97173.75;;;4.83;73.02
10135;BME280;5107;48.850;8.924;2023-02-21T04:18:30;97170.66;;;4.78;71.98
10135;BME280;5107;48.850;8.924;2023-02-21T04:20:59;97171.41;;;4.69;73.39
10135;BME280;5107;48.850;8.924;2023-02-21T04:23:27;97179.00;;;4.61;74.28
10135;BME280;5107;48.850;8.924;2023-02-21T04:25:55;97186.34;;;4.56;72.55
10135;BME280;5107;48.850;8.924;2023-02-21T04:28:30;97174.28;;;4.55;72.40
10135;BME280;5107;48.850;8.924;2023-02-21T04:30:57;97172.38;;;4.57;72.00
10135;BME280;5107;48.850;8.924;2023-02-21T04:33:24;97181.75;;;4.60;72.56
10135;BME280;5107;48.850;8.924;2023-02-21T04:35:51;97169.28;;;4.63;71.77
10135;BME280;5107;48.850;8.924;2023-02-21T04:38:24;97176.88;;;4.66;72.09
10135;BME280;5107;48.850;8.924;2023-02-21T04:40:52;97172.38;;;4.68;71.73
10135;BME280;5107;48.850;8.924;2023-02-21T04:43:20;97180.88;;;4.70;72.44
10135;BME280;5107;48.850;8.924;2023-02-21T04:45:48;97182.53;;;4.71;70.94
10135;BME280;5107;48.850;8.924;2023-02-21T04:48:15;97181.59;;;4.72;71.28
10135;BME280;5107;48.850;8.924;2023-02-21T04:50:42;97186.69;;;4.74;71.52
10135;BME280;5107;48.850;8.924;2023-02-21T04:53:09;97186.22;;;4.69;71.56
10135;BME280;5107;48.850;8.924;2023-02-21T04:55:36;97191.09;;;4.62;71.81
10135;BME280;5107;48.850;8.924;2023-02-21T04:58:03;97184.34;;;4.60;72.21
10135;BME280;5107;48.850;8.924;2023-02-21T05:00:32;97183.88;;;4.54;72.53
10135;BME280;5107;48.850;8.924;2023-02-21T05:02:59;97177.94;;;4.52;73.23
10135;BME280;5107;48.850;8.924;2023-02-21T05:05:26;97175.34;;;4.52;72.80
10135;BME280;5107;48.850;8.924;2023-02-21T05:07:53;97174.88;;;4.47;73.31
10135;BME280;5107;48.850;8.924;2023-02-21T05:10:20;97172.41;;;4.46;72.88
10135;BME280;5107;48.850;8.924;2023-02-21T05:12:47;97173.34;;;4.45;73.04
10135;BME280;5107;48.850;8.924;2023-02-21T05:15:15;97159.84;;;4.40;73.53
10135;BME280;5107;48.850;8.924;2023-02-21T05:17:43;97159.16;;;4.38;74.12
10135;BME280;5107;48.850;8.924;2023-02-21T05:20:11;97163.06;;;4.32;74.98
10135;BME280;5107;48.850;8.924;2023-02-21T05:22:38;97157.75;;;4.34;74.52
10135;BME280;5107;48.850;8.924;2023-02-21T05:25:06;97162.25;;;4.32;75.61
10135;BME280;5107;48.850;8.924;2023-02-21T05:27:33;97160.56;;;4.31;75.42
10135;BME280;5107;48.850;8.924;2023-02-21T05:30:00;97166.72;;;4.30;75.28
10135;BME280;5107;48.850;8.924;2023-02-21T05:32:27;97155.25;;;4.32;74.28
10135;BME280;5107;48.850;8.924;2023-02-21T05:34:56;97162.97;;;4.34;74.04
10135;BME280;5107;48.850;8.924;2023-02-21T05:37:23;97155.81;;;4.36;74.00
10135;BME280;5107;48.850;8.924;2023-02-21T05:39:50;97164.34;;;4.38;73.46
10135;BME280;5107;48.850;8.924;2023-02-21T05:42:17;97157.38;;;4.38;72.99
10135;BME280;5107;48.850;8.924;2023-02-21T05:44:45;97162.47;;;4.40;72.61
10135;BME280;5107;48.850;8.924;2023-02-21T05:47:14;97169.22;;;4.42;73.12
10135;BME280;5107;48.850;8.924;2023-02-21T05:49:42;97166.34;;;4.45;72.67
10135;BME280;5107;48.850;8.924;2023-02-21T05:52:12;97169.56;;;4.49;72.40
10135;BME280;5107;48.850;8.924;2023-02-21T05:54:40;97165.63;;;4.54;72.28
10135;BME280;5107;48.850;8.924;2023-02-21T05:57:07;97168.00;;;4.57;71.85
10135;BME280;5107;48.850;8.924;2023-02-21T05:59:34;97173.34;;;4.56;72.41
10135;BME280;5107;48.850;8.924;2023-02-21T06:02:01;97170.00;;;4.54;72.23
10135;BME280;5107;48.850;8.924;2023-02-21T06:04:28;97165.06;;;4.51;72.63
10135;BME280;5107;48.850;8.924;2023-02-21T06:06:55;97150.75;;;4.34;72.40
10135;BME280;5107;48.850;8.924;2023-02-21T06:09:24;97163.78;;;4.23;74.01
10135;BME280;5107;48.850;8.924;2023-02-21T06:11:50;97154.91;;;4.14;74.17
10135;BME280;5107;48.850;8.924;2023-02-21T06:14:21;97151.94;;;3.97;74.13
10135;BME280;5107;48.850;8.924;2023-02-21T06:16:48;97151.81;;;3.87;73.77
10135;BME280;5107;48.850;8.924;2023-02-21T06:19:16;97154.28;;;3.77;74.60
10135;BME280;5107;48.850;8.924;2023-02-21T06:21:44;97152.75;;;3.64;75.53
10135;BME280;5107;48.850;8.924;2023-02-21T06:24:11;97146.69;;;3.52;75.90
10135;BME280;5107;48.850;8.924;2023-02-21T06:26:40;97144.81;;;3.43;76.71
10135;BME280;5107;48.850;8.924;2023-02-21T06:29:08;97141.81;;;3.36;76.39
10135;BME280;5107;48.850;8.924;2023-02-21T06:31:36;97146.34;;;3.57;76.58
10135;BME280;5107;48.850;8.924;2023-02-21T06:34:04;97148.16;;;3.78;75.11
10135;BME280;5107;48.850;8.924;2023-02-21T06:36:31;97154.56;;;3.97;75.80
10135;BME280;5107;48.850;8.924;2023-02-21T06:38:58;97163.91;;;4.22;74.26
10135;BME280;5107;48.850;8.924;2023-02-21T06:41:28;97161.53;;;4.41;73.27
10135;BME280;5107;48.850;8.924;2023-02-21T06:43:57;97164.19;;;4.62;72.42
10135;BME280;5107;48.850;8.924;2023-02-21T06:46:28;97161.78;;;4.81;71.60
10135;BME280;5107;48.850;8.924;2023-02-21T06:48:56;97162.06;;;5.30;77.58
10135;BME280;5107;48.850;8.924;2023-02-21T06:51:23;97158.84;;;5.59;71.83
10135;BME280;5107;48.850;8.924;2023-02-21T06:53:55;97157.63;;;5.63;69.17
10135;BME280;5107;48.850;8.924;2023-02-21T06:56:22;97161.72;;;5.86;69.56
10135;BME280;5107;48.850;8.924;2023-02-21T06:58:49;97170.00;;;6.12;68.79
10135;BME280;5107;48.850;8.924;2023-02-21T07:01:18;97161.44;;;6.31;67.67
10135;BME280;5107;48.850;8.924;2023-02-21T07:03:46;97160.22;;;6.44;66.74
10135;BME280;5107;48.850;8.924;2023-02-21T07:06:13;97167.66;;;7.08;68.35
10135;BME280;5107;48.850;8.924;2023-02-21T07:08:40;97165.00;;;7.76;64.71
10135;BME280;5107;48.850;8.924;2023-02-21T07:11:08;97158.16;;;8.49;62.48
10135;BME280;5107;48.850;8.924;2023-02-21T07:13:35;97168.09;;;8.72;58.03
10135;BME280;5107;48.850;8.924;2023-02-21T07:16:03;97163.94;;;8.52;58.25
10135;BME280;5107;48.850;8.924;2023-02-21T07:18:32;97161.66;;;8.30;58.96
10135;BME280;5107;48.850;8.924;2023-02-21T07:20:59;97162.03;;;8.08;60.71
10135;BME280;5107;48.850;8.924;2023-02-21T07:23:26;97168.38;;;8.52;59.93
10135;BME280;5107;48.850;8.924;2023-02-21T07:25:53;97172.66;;;8.70;57.22
10135;BME280;5107;48.850;8.924;2023-02-21T07:28:20;97164.41;;;8.65;58.68
10135;BME280;5107;48.850;8.924;2023-02-21T07:30:47;97163.91;;;8.80;58.16
10135;BME280;5107;48.850;8.924;2023-02-21T07:33:15;97166.59;;;9.33;56.77
10135;BME280;5107;48.850;8.924;2023-02-21T07:35:43;97173.03;;;9.38;57.36
10135;BME280;5107;48.850;8.924;2023-02-21T07:38:19;97170.38;;;9.74;55.79
10135;BME280;5107;48.850;8.924;2023-02-21T07:40:46;97173.97;;;9.73;55.83
10135;BME280;5107;48.850;8.924;2023-02-21T07:43:13;97165.81;;;9.58;56.18
10135;BME280;5107;48.850;8.924;2023-02-21T07:45:41;97166.34;;;9.62;55.99
10135;BME280;5107;48.850;8.924;2023-02-21T07:48:08;97162.75;;;9.88;57.38
10135;BME280;5107;48.850;8.924;2023-02-21T07:50:35;97165.38;;;9.88;55.83
10135;BME280;5107;48.850;8.924;2023-02-21T07:53:03;97165.47;;;10.22;56.44
10135;BME280;5107;48.850;8.924;2023-02-21T07:55:30;97169.63;;;10.07;56.61
10135;BME280;5107;48.850;8.924;2023-02-21T07:57:58;97165.38;;;10.14;56.68
10135;BME280;5107;48.850;8.924;2023-02-21T08:00:25;97165.69;;;10.29;55.83
10135;BME280;5107;48.850;8.924;2023-02-21T08:02:52;97169.38;;;10.94;54.03
10135;BME280;5107;48.850;8.924;2023-02-21T08:05:20;97166.16;;;11.33;52.32
10135;BME280;5107;48.850;8.924;2023-02-21T08:07:47;97162.41;;;11.52;51.10
10135;BME280;5107;48.850;8.924;2023-02-21T08:10:21;97167.44;;;12.26;50.45
10135;BME280;5107;48.850;8.924;2023-02-21T08:12:49;97167.78;;;12.78;48.51
10135;BME280;5107;48.850;8.924;2023-02-21T08:15:17;97169.25;;;13.12;47.04
10135;BME280;5107;48.850;8.924;2023-02-21T08:17:47;97175.22;;;13.14;47.85
10135;BME280;5107;48.850;8.924;2023-02-21T08:20:15;97164.59;;;13.45;46.74
10135;BME280;5107;48.850;8.924;2023-02-21T08:22:42;97167.25;;;13.45;46.37
10135;BME280;5107;48.850;8.924;2023-02-21T08:25:10;97170.56;;;13.84;46.05
10135;BME280;5107;48.850;8.924;2023-02-21T08:27:39;97172.94;;;13.79;46.10
10135;BME280;5107;48.850;8.924;2023-02-21T08:30:08;97177.56;;;14.15;45.45
10135;BME280;5107;48.850;8.924;2023-02-21T08:32:36;97175.38;;;14.33;48.49
10135;BME280;5107;48.850;8.924;2023-02-21T08:35:03;97181.06;;;13.92;45.85
10135;BME280;5107;48.850;8.924;2023-02-21T08:37:31;97173.44;;;13.97;46.10
10135;BME280;5107;48.850;8.924;2023-02-21T08:40:02;97174.63;;;14.47;45.46
10135;BME280;5107;48.850;8.924;2023-02-21T08:42:29;97180.41;;;14.13;45.86
10135;BME280;5107;48.850;8.924;2023-02-21T08:44:58;97182.16;;;14.21;46.27
10135;BME280;5107;48.850;8.924;2023-02-21T08:47:25;97173.19;;;14.22;46.27
10135;BME280;5107;48.850;8.924;2023-02-21T08:49:52;97177.44;;;14.08;46.00
10135;BME280;5107;48.850;8.924;2023-02-21T08:52:19;97171.13;;;14.61;44.11
10135;BME280;5107;48.850;8.924;2023-02-21T08:54:47;97169.75;;;14.65;47.57
10135;BME280;5107;48.850;8.924;2023-02-21T08:57:14;97168.47;;;14.76;44.86
10135;BME280;5107;48.850;8.924;2023-02-21T08:59:42;97176.22;;;14.92;44.59
10135;BME280;5107;48.850;8.924;2023-02-21T09:02:17;97173.28;;;15.02;44.40
10135;BME280;5107;48.850;8.924;2023-02-21T09:04:45;97172.56;;;14.93;45.20
10135;BME280;5107;48.850;8.924;2023-02-21T09:07:12;97177.41;;;15.04;43.74
10135;BME280;5107;48.850;8.924;2023-02-21T09:09:40;97174.47;;;14.99;44.04
10135;BME280;5107;48.850;8.924;2023-02-21T09:12:08;97170.75;;;14.94;43.73
10135;BME280;5107;48.850;8.924;2023-02-21T09:14:35;97175.47;;;15.34;42.88
10135;BME280;5107;48.850;8.924;2023-02-21T09:17:03;97174.81;;;15.68;41.54
10135;BME280;5107;48.850;8.924;2023-02-21T09:19:32;97171.31;;;16.10;40.62
10135;BME280;5107;48.850;8.924;2023-02-21T09:22:00;97169.88;;;16.42;40.63
10135;BME280;5107;48.850;8.924;2023-02-21T09:24:29;97174.53;;;15.57;41.01
10135;BME280;5107;48.850;8.924;2023-02-21T09:26:58;97175.63;;;15.47;42.45
10135;BME280;5107;48.850;8.924;2023-02-21T09:29:28;97175.72;;;15.54;42.52
10135;BME280;5107;48.850;8.924;2023-02-21T09:31:56;97173.38;;;15.87;41.63
10135;BME280;5107;48.850;8.924;2023-02-21T09:34:23;97164.72;;;16.34;40.72
10135;BME280;5107;48.850;8.924;2023-02-21T09:36:52;97175.56;;;15.83;42.10
10135;BME280;5107;48.850;8.924;2023-02-21T09:39:19;97174.97;;;16.09;42.24
10135;BME280;5107;48.850;8.924;2023-02-21T09:41:47;97172.22;;;15.96;41.21
10135;BME280;5107;48.850;8.924;2023-02-21T09:44:20;97174.81;;;15.89;41.83
10135;BME280;5107;48.850;8.924;2023-02-21T09:46:51;97171.34;;;16.17;41.43
10135;BME280;5107;48.850;8.924;2023-02-21T09:49:23;97166.19;;;16.64;40.48
10135;BME280;5107;48.850;8.924;2023-02-21T09:51:54;97164.41;;;16.78;42.18
10135;BME280;5107;48.850;8.924;2023-02-21T09:54:27;97161.97;;;16.83;41.92
10135;BME280;5107;48.850;8.924;2023-02-21T09:56:58;97164.34;;;17.13;39.72
10135;BME280;5107;48.850;8.924;2023-02-21T09:59:27;97167.38;;;16.62;40.03
10135;BME280;5107;48.850;8.924;2023-02-21T10:02:15;97170.81;;;16.00;41.80
10135;BME280;5107;48.850;8.924;2023-02-21T10:04:58;97169.16;;;15.99;41.63
10135;BME280;5107;48.850;8.924;2023-02-21T10:07:38;97164.00;;;16.47;41.71
10135;BME280;5107;48.850;8.924;2023-02-21T10:10:15;97165.63;;;16.82;40.12
10135;BME280;5107;48.850;8.924;2023-02-21T10:12:48;97166.47;;;17.37;39.79
10135;BME280;5107;48.850;8.924;2023-02-21T10:15:33;97160.59;;;17.68;38.98
10135;BME280;5107;48.850;8.924;2023-02-21T10:18:15;97163.50;;;18.06;37.98
10135;BME280;5107;48.850;8.924;2023-02-21T10:20:50;97160.59;;;18.27;37.02
10135;BME280;5107;48.850;8.924;2023-02-21T10:23:23;97154.47;;;18.13;38.12
10135;BME280;5107;48.850;8.924;2023-02-21T10:25:58;97150.75;;;18.34;41.17
10135;BME280;5107;48.850;8.924;2023-02-21T10:28:27;97155.66;;;18.64;37.45
10135;BME280;5107;48.850;8.924;2023-02-21T10:30:59;97151.81;;;18.20;36.97
10135;BME280;5107;48.850;8.924;2023-02-21T10:33:28;97145.88;;;17.92;37.97
10135;BME280;5107;48.850;8.924;2023-02-21T10:35:56;97151.63;;;17.89;38.05
10135;BME280;5107;48.850;8.924;2023-02-21T10:38:25;97148.84;;;17.42;38.78
10135;BME280;5107;48.850;8.924;2023-02-21T10:40:55;97150.41;;;17.11;39.36
10135;BME280;5107;48.850;8.924;2023-02-21T10:43:29;97149.13;;;16.93;39.49
10135;BME280;5107;48.850;8.924;2023-02-21T10:46:01;97153.72;;;17.26;39.00
10135;BME280;5107;48.850;8.924;2023-02-21T10:48:34;97154.16;;;17.23;39.05
10135;BME280;5107;48.850;8.924;2023-02-21T10:51:08;97144.59;;;17.61;38.42
10135;BME280;5107;48.850;8.924;2023-02-21T10:53:39;97142.38;;;18.11;37.58
10135;BME280;5107;48.850;8.924;2023-02-21T10:56:26;97135.56;;;18.48;37.38
10135;BME280;5107;48.850;8.924;2023-02-21T10:58:58;97139.47;;;18.45;37.94
10135;BME280;5107;48.850;8.924;2023-02-21T11:01:36;97138.69;;;18.12;37.66
10135;BME280;5107;48.850;8.924;2023-02-21T11:04:24;97137.06;;;18.24;37.59
10135;BME280;5107;48.850;8.924;2023-02-21T11:06:55;97137.63;;;18.39;37.24
10135;BME280;5107;48.850;8.924;2023-02-21T11:09:37;97125.72;;;18.42;37.29
10135;BME280;5107;48.850;8.924;2023-02-21T11:12:18;97129.41;;;18.47;38.10
10135;BME280;5107;48.850;8.924;2023-02-21T11:15:14;97125.56;;;18.24;38.00
10135;BME280;5107;48.850;8.924;2023-02-21T11:17:43;97119.88;;;18.07;38.81
10135;BME280;5107;48.850;8.924;2023-02-21T11:20:18;97116.28;;;18.66;38.59
10135;BME280;5107;48.850;8.924;2023-02-21T11:22:48;97108.13;;;18.92;37.69
10135;BME280;5107;48.850;8.924;2023-02-21T11:25:23;97107.19;;;18.80;37.36
10135;BME280;5107;48.850;8.924;2023-02-21T11:28:06;97106.41;;;18.73;36.83
10135;BME280;5107;48.850;8.924;2023-02-21T11:30:49;97105.88;;;18.95;36.47
10135;BME280;5107;48.850;8.924;2023-02-21T11:33:20;97094.75;;;19.05;36.99
10135;BME280;5107;48.850;8.924;2023-02-21T11:35:50;97093.16;;;18.40;37.34
10135;BME280;5107;48.850;8.924;2023-02-21T11:38:38;97088.06;;;18.18;37.76
10135;BME280;5107;48.850;8.924;2023-02-21T11:41:21;97075.38;;;18.14;37.57
10135;BME280;5107;48.850;8.924;2023-02-21T11:43:49;97077.94;;;18.60;36.53
10135;BME280;5107;48.850;8.924;2023-02-21T11:46:33;97077.56;;;18.94;36.80
10135;BME280;5107;48.850;8.924;2023-02-21T11:49:10;97066.03;;;19.07;35.54
10135;BME280;5107;48.850;8.924;2023-02-21T11:51:46;97067.22;;;18.73;36.57
10135;BME280;5107;48.850;8.924;2023-02-21T11:54:15;97068.81;;;18.81;37.17
10135;BME280;5107;48.850;8.924;2023-02-21T11:56:54;97065.22;;;19.00;36.33
10135;BME280;5107;48.850;8.924;2023-02-21T11:59:35;97060.44;;;19.09;38.59
10135;BME280;5107;48.850;8.924;2023-02-21T12:02:42;97051.63;;;19.40;37.05
10135;BME280;5107;48.850;8.924;2023-02-21T12:05:30;97047.31;;;19.39;36.47
10135;BME280;5107;48.850;8.924;2023-02-21T12:08:27;97036.44;;;19.09;37.48
10135;BME280;5107;48.850;8.924;2023-02-21T12:11:22;97036.19;;;19.42;38.51
10135;BME280;5107;48.850;8.924;2023-02-21T12:14:06;97029.25;;;19.41;36.82
10135;BME280;5107;48.850;8.924;2023-02-21T12:16:47;97032.59;;;19.61;37.60
10135;BME280;5107;48.850;8.924;2023-02-21T12:19:45;97022.06;;;19.41;37.11
10135;BME280;5107;48.850;8.924;2023-02-21T12:22:31;97007.00;;;19.47;38.11
10135;BME280;5107;48.850;8.924;2023-02-21T12:25:15;97004.41;;;19.40;38.08
10135;BME280;5107;48.850;8.924;2023-02-21T12:27:53;97005.22;;;19.41;37.41
10135;BME280;5107;48.850;8.924;2023-02-21T12:30:37;97001.88;;;19.20;38.25
10135;BME280;5107;48.850;8.924;2023-02-21T12:33:21;96986.53;;;19.16;38.30
10135;BME280;5107;48.850;8.924;2023-02-21T12:36:34;96988.16;;;19.42;38.50
10135;BME280;5107;48.850;8.924;2023-02-21T12:39:20;96978.84;;;19.26;37.64
10135;BME280;5107;48.850;8.924;2023-02-21T12:42:16;96981.34;;;19.21;37.50
10135;BME280;5107;48.850;8.924;2023-02-21T12:44:57;96982.69;;;19.05;38.32
10135;BME280;5107;48.850;8.924;2023-02-21T12:47:34;96970.22;;;18.68;39.05
10135;BME280;5107;48.850;8.924;2023-02-21T12:50:12;96976.63;;;18.53;39.48
10135;BME280;5107;48.850;8.924;2023-02-21T12:52:51;96969.03;;;18.50;39.87
10135;BME280;5107;48.850;8.924;2023-02-21T12:55:25;96961.13;;;18.37;40.05
10135;BME280;5107;48.850;8.924;2023-02-21T12:57:59;96955.09;;;18.10;40.31
10135;BME280;5107;48.850;8.924;2023-02-21T13:00:33;96954.56;;;18.33;39.62
10135;BME280;5107;48.850;8.924;2023-02-21T13:03:18;96949.00;;;18.41;39.96
10135;BME280;5107;48.850;8.924;2023-02-21T13:05:53;96939.66;;;18.32;39.69
10135;BME280;5107;48.850;8.924;2023-02-21T13:08:26;96938.94;;;18.43;40.86
10135;BME280;5107;48.850;8.924;2023-02-21T13:11:02;96934.97;;;18.66;39.34
10135;BME280;5107;48.850;8.924;2023-02-21T13:13:33;96932.13;;;18.54;39.74
10135;BME280;5107;48.850;8.924;2023-02-21T13:16:03;96928.25;;;18.56;40.30
10135;BME280;5107;48.850;8.924;2023-02-21T13:18:35;96921.47;;;18.61;38.72
10135;BME280;5107;48.850;8.924;2023-02-21T13:21:17;96928.50;;;18.48;38.78
10135;BME280;5107;48.850;8.924;2023-02-21T13:24:08;96917.38;;;18.51;39.42
10135;BME280;5107;48.850;8.924;2023-02-21T13:26:52;96919.28;;;18.82;38.72
10135;BME280;5107;48.850;8.924;2023-02-21T13:29:27;96916.72;;;18.94;39.16
10135;BME280;5107;48.850;8.924;2023-02-21T13:31:59;96909.22;;;19.27;37.79
10135;BME280;5107;48.850;8.924;2023-02-21T13:34:37;96903.28;;;19.25;37.46
10135;BME280;5107;48.850;8.924;2023-02-21T13:37:13;96896.28;;;19.31;37.82
10135;BME280;5107;48.850;8.924;2023-02-21T13:39:45;96893.97;;;19.16;37.61
10135;BME280;5107;48.850;8.924;2023-02-21T13:42:18;96892.09;;;19.17;38.16
10135;BME280;5107;48.850;8.924;2023-02-21T13:44:49;96888.72;;;19.03;37.62
10135;BME280;5107;48.850;8.924;2023-02-21T13:47:19;96873.47;;;18.85;38.08
10135;BME280;5107;48.850;8.924;2023-02-21T13:49:52;96869.72;;;18.93;38.24
10135;BME280;5107;48.850;8.924;2023-02-21T13:52:51;96876.00;;;19.05;38.29
10135;BME280;5107;48.850;8.924;2023-02-21T13:55:27;96869.66;;;19.24;38.06
10135;BME280;5107;48.850;8.924;2023-02-21T13:58:42;96862.97;;;19.33;37.26
10135;BME280;5107;48.850;8.924;2023-02-21T14:01:40;96857.09;;;19.25;37.59
10135;BME280;5107;48.850;8.924;2023-02-21T14:05:02;96861.16;;;18.91;38.38
10135;BME280;5107;48.850;8.924;2023-02-21T14:07:55;96856.09;;;18.83;38.49
10135;BME280;5107;48.850;8.924;2023-02-21T14:10:35;96856.13;;;18.76;38.16